sensor_id;sensor_type;location;lat;lon;timestamp;temperature;humidity
13253;DHT22;6693;54.370;10.132;2022-08-20T00:01:52;22.70;99.90
13253;DHT22;6693;54.370;10.132;2022-08-20T00:03:54;22.60;99.90
13253;DHT22;6693;54.370;10.132;2022-08-20T00:05:56;22.70;99.90
13253;DHT22;6693;54.370;10.132;2022-08-20T00:07:58;22.80;99.90
13253;DHT22;6693;54.370;10.132;2022-08-20T00:10:00;22.80;99.90
13253;DHT22;6693;54.370;10.132;2022-08-20T00:12:02;22.80;99.90
13253;DHT22;6693;54.370;10.132;2022-08-20T00:14:04;22.80;99.90
13253;DHT22;6693;54.370;10.132;2022-08-20T00:16:08;22.80;99.90
13253;DHT22;6693;54.370;10.132;2022-08-20T00:18:09;22.80;99.90
13253;DHT22;6693;54.370;10.132;2022-08-20T00:20:11;22.80;99.90
13253;DHT22;6693;54.370;10.132;2022-08-20T00:22:13;22.80;99.90
13253;DHT22;6693;54.370;10.132;2022-08-20T00:24:15;22.80;99.90
13253;DHT22;6693;54.370;10.132;2022-08-20T00:26:16;22.90;99.90
13253;DHT22;6693;54.370;10.132;2022-08-20T00:28:18;22.90;99.90
13253;DHT22;6693;54.370;10.132;2022-08-20T00:30:20;22.90;99.90
13253;DHT22;6693;54.370;10.132;2022-08-20T00:32:23;22.90;99.90
13253;DHT22;6693;54.370;10.132;2022-08-20T00:34:25;22.90;99.90
13253;DHT22;6693;54.370;10.132;2022-08-20T00:36:26;22.90;99.90
13253;DHT22;6693;54.370;10.132;2022-08-20T00:38:28;22.90;99.90
13253;DHT22;6693;54.370;10.132;2022-08-20T00:40:32;22.80;99.90
13253;DHT22;6693;54.370;10.132;2022-08-20T00:42:38;22.80;99.90
13253;DHT22;6693;54.370;10.132;2022-08-20T00:44:43;22.80;99.90
13253;DHT22;6693;54.370;10.132;2022-08-20T00:46:45;22.80;99.90
13253;DHT22;6693;54.370;10.132;2022-08-20T00:48:49;22.80;99.90
13253;DHT22;6693;54.370;10.132;2022-08-20T00:50:51;22.80;99.90
13253;DHT22;6693;54.370;10.132;2022-08-20T00:52:54;22.80;99.90
13253;DHT22;6693;54.370;10.132;2022-08-20T00:54:57;22.80;99.90
13253;DHT22;6693;54.370;10.132;2022-08-20T00:57:00;22.90;99.90
13253;DHT22;6693;54.370;10.132;2022-08-20T00:59:03;22.90;99.90
13253;DHT22;6693;54.370;10.132;2022-08-20T01:01:05;22.90;99.90
13253;DHT22;6693;54.370;10.132;2022-08-20T01:03:07;22.80;99.90
13253;DHT22;6693;54.370;10.132;2022-08-20T01:05:12;22.70;99.90
13253;DHT22;6693;54.370;10.132;2022-08-20T01:07:14;22.90;99.90
13253;DHT22;6693;54.370;10.132;2022-08-20T01:09:15;22.70;99.90
13253;DHT22;6693;54.370;10.132;2022-08-20T01:11:17;22.70;99.90
13253;DHT22;6693;54.370;10.132;2022-08-20T01:13:22;22.80;99.90
13253;DHT22;6693;54.370;10.132;2022-08-20T01:15:26;22.60;99.90
13253;DHT22;6693;54.370;10.132;2022-08-20T01:17:30;22.60;99.90
13253;DHT22;6693;54.370;10.132;2022-08-20T01:19:34;22.60;99.90
13253;DHT22;6693;54.370;10.132;2022-08-20T01:21:38;22.60;99.90
13253;DHT22;6693;54.370;10.132;2022-08-20T01:23:41;22.60;99.90
13253;DHT22;6693;54.370;10.132;2022-08-20T01:25:45;22.60;99.90
13253;DHT22;6693;54.370;10.132;2022-08-20T01:27:49;22.60;99.90
13253;DHT22;6693;54.370;10.132;2022-08-20T01:29:51;22.50;99.90
13253;DHT22;6693;54.370;10.132;2022-08-20T01:31:53;22.50;99.90
13253;DHT22;6693;54.370;10.132;2022-08-20T01:34:01;22.50;99.90
13253;DHT22;6693;54.370;10.132;2022-08-20T01:36:04;22.60;99.90
13253;DHT22;6693;54.370;10.132;2022-08-20T01:38:06;22.70;99.90
13253;DHT22;6693;54.370;10.132;2022-08-20T01:40:08;22.80;99.90
13253;DHT22;6693;54.370;10.132;2022-08-20T01:42:16;23.70;99.90
13253;DHT22;6693;54.370;10.132;2022-08-20T01:44:19;23.00;99.90
13253;DHT22;6693;54.370;10.132;2022-08-20T01:46:22;23.10;99.90
13253;DHT22;6693;54.370;10.132;2022-08-20T01:48:24;23.10;99.90
13253;DHT22;6693;54.370;10.132;2022-08-20T01:50:26;23.10;99.90
13253;DHT22;6693;54.370;10.132;2022-08-20T01:52:30;23.20;99.90
13253;DHT22;6693;54.370;10.132;2022-08-20T01:54:33;23.20;99.90
13253;DHT22;6693;54.370;10.132;2022-08-20T01:56:38;23.30;99.90
13253;DHT22;6693;54.370;10.132;2022-08-20T01:58:53;23.30;99.90
13253;DHT22;6693;54.370;10.132;2022-08-20T02:00:56;23.30;99.90
13253;DHT22;6693;54.370;10.132;2022-08-20T02:02:57;23.30;99.90
13253;DHT22;6693;54.370;10.132;2022-08-20T02:04:59;23.10;99.90
13253;DHT22;6693;54.370;10.132;2022-08-20T02:07:02;23.00;99.90
13253;DHT22;6693;54.370;10.132;2022-08-20T02:09:04;22.90;99.90
13253;DHT22;6693;54.370;10.132;2022-08-20T02:11:06;22.70;99.90
13253;DHT22;6693;54.370;10.132;2022-08-20T02:13:08;22.70;99.90
13253;DHT22;6693;54.370;10.132;2022-08-20T02:15:11;22.80;99.90
13253;DHT22;6693;54.370;10.132;2022-08-20T02:17:13;22.70;99.90
13253;DHT22;6693;54.370;10.132;2022-08-20T02:19:15;22.60;99.90
13253;DHT22;6693;54.370;10.132;2022-08-20T02:21:18;22.50;99.90
13253;DHT22;6693;54.370;10.132;2022-08-20T02:23:20;22.50;99.90
13253;DHT22;6693;54.370;10.132;2022-08-20T02:25:22;22.60;99.90
13253;DHT22;6693;54.370;10.132;2022-08-20T02:27:24;22.60;99.90
13253;DHT22;6693;54.370;10.132;2022-08-20T02:29:26;22.40;99.90
13253;DHT22;6693;54.370;10.132;2022-08-20T02:31:29;22.50;99.90
13253;DHT22;6693;54.370;10.132;2022-08-20T02:33:30;22.50;99.90
13253;DHT22;6693;54.370;10.132;2022-08-20T02:35:32;22.60;99.90
13253;DHT22;6693;54.370;10.132;2022-08-20T02:37:34;22.70;99.90
13253;DHT22;6693;54.370;10.132;2022-08-20T02:39:35;22.60;99.90
13253;DHT22;6693;54.370;10.132;2022-08-20T02:41:37;22.60;99.90
13253;DHT22;6693;54.370;10.132;2022-08-20T02:43:38;22.60;99.90
13253;DHT22;6693;54.370;10.132;2022-08-20T02:45:40;22.60;99.90
13253;DHT22;6693;54.370;10.132;2022-08-20T02:47:45;22.60;99.90
13253;DHT22;6693;54.370;10.132;2022-08-20T02:49:47;22.60;99.90
13253;DHT22;6693;54.370;10.132;2022-08-20T02:51:48;22.70;99.90
13253;DHT22;6693;54.370;10.132;2022-08-20T02:53:50;22.70;99.90
13253;DHT22;6693;54.370;10.132;2022-08-20T02:55:51;22.70;99.90
13253;DHT22;6693;54.370;10.132;2022-08-20T02:57:54;22.80;99.90
13253;DHT22;6693;54.370;10.132;2022-08-20T02:59:55;22.90;99.90
13253;DHT22;6693;54.370;10.132;2022-08-20T03:01:57;22.90;99.90
13253;DHT22;6693;54.370;10.132;2022-08-20T03:04:00;22.80;99.90
13253;DHT22;6693;54.370;10.132;2022-08-20T03:06:03;22.80;99.90
13253;DHT22;6693;54.370;10.132;2022-08-20T03:08:05;22.90;99.90
13253;DHT22;6693;54.370;10.132;2022-08-20T03:10:07;23.00;99.90
13253;DHT22;6693;54.370;10.132;2022-08-20T03:12:09;22.90;99.90
13253;DHT22;6693;54.370;10.132;2022-08-20T03:14:11;22.90;99.90
13253;DHT22;6693;54.370;10.132;2022-08-20T03:16:13;22.90;99.90
13253;DHT22;6693;54.370;10.132;2022-08-20T03:18:15;23.00;99.90
13253;DHT22;6693;54.370;10.132;2022-08-20T03:20:18;22.80;99.90
13253;DHT22;6693;54.370;10.132;2022-08-20T03:22:19;22.80;99.90
13253;DHT22;6693;54.370;10.132;2022-08-20T03:24:21;22.70;99.90
13253;DHT22;6693;54.370;10.132;2022-08-20T03:26:22;22.70;99.90
13253;DHT22;6693;54.370;10.132;2022-08-20T03:28:24;22.50;99.90
13253;DHT22;6693;54.370;10.132;2022-08-20T03:30:26;22.70;99.90
13253;DHT22;6693;54.370;10.132;2022-08-20T03:32:28;22.60;99.90
13253;DHT22;6693;54.370;10.132;2022-08-20T03:34:29;22.60;99.90
13253;DHT22;6693;54.370;10.132;2022-08-20T03:36:32;22.50;99.90
13253;DHT22;6693;54.370;10.132;2022-08-20T03:38:34;22.50;99.90
13253;DHT22;6693;54.370;10.132;2022-08-20T03:40:36;22.50;99.90
13253;DHT22;6693;54.370;10.132;2022-08-20T03:42:38;22.40;99.90
13253;DHT22;6693;54.370;10.132;2022-08-20T03:44:40;22.40;99.90
13253;DHT22;6693;54.370;10.132;2022-08-20T03:46:42;22.60;99.90
13253;DHT22;6693;54.370;10.132;2022-08-20T03:48:43;22.70;99.90
13253;DHT22;6693;54.370;10.132;2022-08-20T03:50:45;22.50;99.90
13253;DHT22;6693;54.370;10.132;2022-08-20T03:52:49;22.30;99.90
13253;DHT22;6693;54.370;10.132;2022-08-20T03:54:50;22.30;99.90
13253;DHT22;6693;54.370;10.132;2022-08-20T03:56:52;22.60;99.90
13253;DHT22;6693;54.370;10.132;2022-08-20T03:58:53;22.80;99.90
13253;DHT22;6693;54.370;10.132;2022-08-20T04:00:55;22.90;99.90
13253;DHT22;6693;54.370;10.132;2022-08-20T04:02:56;22.40;99.90
13253;DHT22;6693;54.370;10.132;2022-08-20T04:04:59;22.40;99.90
13253;DHT22;6693;54.370;10.132;2022-08-20T04:07:07;22.40;99.90
13253;DHT22;6693;54.370;10.132;2022-08-20T04:09:11;22.50;99.90
13253;DHT22;6693;54.370;10.132;2022-08-20T04:11:12;22.60;99.90
13253;DHT22;6693;54.370;10.132;2022-08-20T04:13:14;22.40;99.90
13253;DHT22;6693;54.370;10.132;2022-08-20T04:15:16;22.50;99.90
13253;DHT22;6693;54.370;10.132;2022-08-20T04:17:18;22.60;99.90
13253;DHT22;6693;54.370;10.132;2022-08-20T04:19:20;22.40;99.90
13253;DHT22;6693;54.370;10.132;2022-08-20T04:21:22;22.40;99.90
13253;DHT22;6693;54.370;10.132;2022-08-20T04:23:23;22.40;99.90
13253;DHT22;6693;54.370;10.132;2022-08-20T04:25:26;22.30;99.90
13253;DHT22;6693;54.370;10.132;2022-08-20T04:27:28;22.40;99.90
13253;DHT22;6693;54.370;10.132;2022-08-20T04:29:31;22.40;99.90
13253;DHT22;6693;54.370;10.132;2022-08-20T04:31:33;22.60;99.90
13253;DHT22;6693;54.370;10.132;2022-08-20T04:33:35;22.60;99.90
13253;DHT22;6693;54.370;10.132;2022-08-20T04:35:36;22.60;99.90
13253;DHT22;6693;54.370;10.132;2022-08-20T04:37:38;22.80;99.90
13253;DHT22;6693;54.370;10.132;2022-08-20T04:39:39;22.80;99.90
13253;DHT22;6693;54.370;10.132;2022-08-20T04:41:42;22.80;99.90
13253;DHT22;6693;54.370;10.132;2022-08-20T04:43:43;22.70;99.90
13253;DHT22;6693;54.370;10.132;2022-08-20T04:45:45;22.80;99.90
13253;DHT22;6693;54.370;10.132;2022-08-20T04:47:47;23.00;99.90
13253;DHT22;6693;54.370;10.132;2022-08-20T04:49:48;22.90;99.90
13253;DHT22;6693;54.370;10.132;2022-08-20T04:51:50;22.90;99.90
13253;DHT22;6693;54.370;10.132;2022-08-20T04:53:52;23.00;99.90
13253;DHT22;6693;54.370;10.132;2022-08-20T04:55:55;23.00;99.90
13253;DHT22;6693;54.370;10.132;2022-08-20T04:58:02;22.90;99.90
13253;DHT22;6693;54.370;10.132;2022-08-20T05:00:05;22.90;99.90
13253;DHT22;6693;54.370;10.132;2022-08-20T05:02:08;22.70;99.90
13253;DHT22;6693;54.370;10.132;2022-08-20T05:04:09;22.70;99.90
13253;DHT22;6693;54.370;10.132;2022-08-20T05:06:11;22.80;99.90
13253;DHT22;6693;54.370;10.132;2022-08-20T05:08:13;22.70;99.90
13253;DHT22;6693;54.370;10.132;2022-08-20T05:10:16;22.80;99.90
13253;DHT22;6693;54.370;10.132;2022-08-20T05:12:18;22.80;99.90
13253;DHT22;6693;54.370;10.132;2022-08-20T05:14:20;22.80;99.90
13253;DHT22;6693;54.370;10.132;2022-08-20T05:16:22;22.70;99.90
13253;DHT22;6693;54.370;10.132;2022-08-20T05:18:24;22.80;99.90
13253;DHT22;6693;54.370;10.132;2022-08-20T05:20:25;22.80;99.90
13253;DHT22;6693;54.370;10.132;2022-08-20T05:22:27;22.90;99.90
13253;DHT22;6693;54.370;10.132;2022-08-20T05:24:29;23.00;99.90
13253;DHT22;6693;54.370;10.132;2022-08-20T05:26:31;23.10;99.90
13253;DHT22;6693;54.370;10.132;2022-08-20T05:28:33;22.90;99.90
13253;DHT22;6693;54.370;10.132;2022-08-20T05:30:37;22.80;99.90
13253;DHT22;6693;54.370;10.132;2022-08-20T05:32:39;22.90;99.90
13253;DHT22;6693;54.370;10.132;2022-08-20T05:34:41;22.90;99.90
13253;DHT22;6693;54.370;10.132;2022-08-20T05:36:43;22.90;99.90
13253;DHT22;6693;54.370;10.132;2022-08-20T05:38:46;22.80;99.90
13253;DHT22;6693;54.370;10.132;2022-08-20T05:40:47;23.10;99.90
13253;DHT22;6693;54.370;10.132;2022-08-20T05:42:49;23.10;99.90
13253;DHT22;6693;54.370;10.132;2022-08-20T05:44:52;23.10;99.90
13253;DHT22;6693;54.370;10.132;2022-08-20T05:46:55;23.00;99.90
13253;DHT22;6693;54.370;10.132;2022-08-20T05:48:57;23.00;99.90
13253;DHT22;6693;54.370;10.132;2022-08-20T05:50:58;23.10;99.90
13253;DHT22;6693;54.370;10.132;2022-08-20T05:53:00;23.10;99.90
13253;DHT22;6693;54.370;10.132;2022-08-20T05:55:02;23.20;99.90
13253;DHT22;6693;54.370;10.132;2022-08-20T05:57:04;23.20;99.90
13253;DHT22;6693;54.370;10.132;2022-08-20T05:59:06;23.20;99.90
13253;DHT22;6693;54.370;10.132;2022-08-20T06:01:08;23.30;99.90
13253;DHT22;6693;54.370;10.132;2022-08-20T06:03:11;23.30;99.90
13253;DHT22;6693;54.370;10.132;2022-08-20T06:05:30;23.50;99.90
13253;DHT22;6693;54.370;10.132;2022-08-20T06:07:31;23.80;99.90
13253;DHT22;6693;54.370;10.132;2022-08-20T06:09:33;23.90;99.90
13253;DHT22;6693;54.370;10.132;2022-08-20T06:11:35;23.70;99.90
13253;DHT22;6693;54.370;10.132;2022-08-20T06:13:37;23.60;99.90
13253;DHT22;6693;54.370;10.132;2022-08-20T06:15:38;23.80;99.90
13253;DHT22;6693;54.370;10.132;2022-08-20T06:17:40;23.90;99.90
13253;DHT22;6693;54.370;10.132;2022-08-20T06:19:43;23.80;99.90
13253;DHT22;6693;54.370;10.132;2022-08-20T06:21:45;23.90;99.90
13253;DHT22;6693;54.370;10.132;2022-08-20T06:23:46;24.20;99.90
13253;DHT22;6693;54.370;10.132;2022-08-20T06:25:48;24.10;99.90
13253;DHT22;6693;54.370;10.132;2022-08-20T06:27:50;24.10;99.90
13253;DHT22;6693;54.370;10.132;2022-08-20T06:29:51;24.40;99.90
13253;DHT22;6693;54.370;10.132;2022-08-20T06:31:53;24.70;99.90
13253;DHT22;6693;54.370;10.132;2022-08-20T06:33:55;24.50;99.90
13253;DHT22;6693;54.370;10.132;2022-08-20T06:35:58;24.70;99.90
13253;DHT22;6693;54.370;10.132;2022-08-20T06:37:59;24.70;99.90
13253;DHT22;6693;54.370;10.132;2022-08-20T06:40:02;24.50;99.90
13253;DHT22;6693;54.370;10.132;2022-08-20T06:42:05;24.50;99.90
13253;DHT22;6693;54.370;10.132;2022-08-20T06:44:07;24.90;99.90
13253;DHT22;6693;54.370;10.132;2022-08-20T06:46:09;25.00;99.90
13253;DHT22;6693;54.370;10.132;2022-08-20T06:48:12;25.20;99.90
13253;DHT22;6693;54.370;10.132;2022-08-20T06:50:16;25.20;99.90
13253;DHT22;6693;54.370;10.132;2022-08-20T06:52:19;25.50;99.90
13253;DHT22;6693;54.370;10.132;2022-08-20T06:54:21;25.30;99.90
13253;DHT22;6693;54.370;10.132;2022-08-20T06:56:22;25.20;99.90
13253;DHT22;6693;54.370;10.132;2022-08-20T06:58:24;25.10;99.90
13253;DHT22;6693;54.370;10.132;2022-08-20T07:00:27;26.70;99.90
13253;DHT22;6693;54.370;10.132;2022-08-20T07:02:28;25.70;99.90
13253;DHT22;6693;54.370;10.132;2022-08-20T07:04:30;25.60;99.90
13253;DHT22;6693;54.370;10.132;2022-08-20T07:06:32;25.90;99.90
13253;DHT22;6693;54.370;10.132;2022-08-20T07:08:35;26.00;99.90
13253;DHT22;6693;54.370;10.132;2022-08-20T07:10:38;25.70;99.90
13253;DHT22;6693;54.370;10.132;2022-08-20T07:12:41;25.40;99.90
13253;DHT22;6693;54.370;10.132;2022-08-20T07:14:42;25.30;99.90
13253;DHT22;6693;54.370;10.132;2022-08-20T07:16:44;25.40;99.90
13253;DHT22;6693;54.370;10.132;2022-08-20T07:18:46;25.70;99.90
13253;DHT22;6693;54.370;10.132;2022-08-20T07:20:48;25.90;99.90
13253;DHT22;6693;54.370;10.132;2022-08-20T07:22:49;26.00;99.90
13253;DHT22;6693;54.370;10.132;2022-08-20T07:24:53;26.00;99.90
13253;DHT22;6693;54.370;10.132;2022-08-20T07:26:54;26.00;99.90
13253;DHT22;6693;54.370;10.132;2022-08-20T07:28:56;26.00;99.90
13253;DHT22;6693;54.370;10.132;2022-08-20T07:30:57;25.90;99.90
13253;DHT22;6693;54.370;10.132;2022-08-20T07:33:17;25.90;99.90
13253;DHT22;6693;54.370;10.132;2022-08-20T07:35:18;26.20;99.90
13253;DHT22;6693;54.370;10.132;2022-08-20T07:37:20;25.90;99.90
13253;DHT22;6693;54.370;10.132;2022-08-20T07:39:23;25.90;99.90
13253;DHT22;6693;54.370;10.132;2022-08-20T07:41:25;26.10;99.90
13253;DHT22;6693;54.370;10.132;2022-08-20T07:43:27;26.10;99.90
13253;DHT22;6693;54.370;10.132;2022-08-20T07:45:29;26.10;99.90
13253;DHT22;6693;54.370;10.132;2022-08-20T07:47:31;26.00;99.90
13253;DHT22;6693;54.370;10.132;2022-08-20T07:49:36;26.00;99.90
13253;DHT22;6693;54.370;10.132;2022-08-20T07:51:37;26.70;99.90
13253;DHT22;6693;54.370;10.132;2022-08-20T07:53:39;26.40;99.90
13253;DHT22;6693;54.370;10.132;2022-08-20T07:55:41;26.20;99.90
13253;DHT22;6693;54.370;10.132;2022-08-20T07:57:46;26.40;99.90
13253;DHT22;6693;54.370;10.132;2022-08-20T07:59:47;26.20;99.90
13253;DHT22;6693;54.370;10.132;2022-08-20T08:01:49;26.20;99.90
13253;DHT22;6693;54.370;10.132;2022-08-20T08:03:50;26.50;99.90
13253;DHT22;6693;54.370;10.132;2022-08-20T08:05:52;26.20;99.90
13253;DHT22;6693;54.370;10.132;2022-08-20T08:07:54;26.30;99.90
13253;DHT22;6693;54.370;10.132;2022-08-20T08:09:56;26.20;99.90
13253;DHT22;6693;54.370;10.132;2022-08-20T08:11:58;26.30;99.90
13253;DHT22;6693;54.370;10.132;2022-08-20T08:14:04;26.60;99.90
13253;DHT22;6693;54.370;10.132;2022-08-20T08:16:07;26.90;99.90
13253;DHT22;6693;54.370;10.132;2022-08-20T08:18:10;26.90;99.90
13253;DHT22;6693;54.370;10.132;2022-08-20T08:20:14;27.10;99.90
13253;DHT22;6693;54.370;10.132;2022-08-20T08:22:16;27.50;99.90
13253;DHT22;6693;54.370;10.132;2022-08-20T08:24:18;27.30;99.90
13253;DHT22;6693;54.370;10.132;2022-08-20T08:26:20;27.60;99.90
13253;DHT22;6693;54.370;10.132;2022-08-20T08:28:22;27.40;99.90
13253;DHT22;6693;54.370;10.132;2022-08-20T08:30:25;27.50;99.90
13253;DHT22;6693;54.370;10.132;2022-08-20T08:32:27;27.70;99.90
13253;DHT22;6693;54.370;10.132;2022-08-20T08:34:30;27.80;99.90
13253;DHT22;6693;54.370;10.132;2022-08-20T08:36:32;27.90;99.90
13253;DHT22;6693;54.370;10.132;2022-08-20T08:38:34;27.90;99.90
13253;DHT22;6693;54.370;10.132;2022-08-20T08:40:37;28.20;99.90
13253;DHT22;6693;54.370;10.132;2022-08-20T08:42:39;28.60;99.90
13253;DHT22;6693;54.370;10.132;2022-08-20T08:44:43;29.00;99.90
13253;DHT22;6693;54.370;10.132;2022-08-20T08:46:46;28.70;1.00
13253;DHT22;6693;54.370;10.132;2022-08-20T08:48:49;28.50;1.00
13253;DHT22;6693;54.370;10.132;2022-08-20T08:50:52;28.20;1.00
13253;DHT22;6693;54.370;10.132;2022-08-20T08:52:58;28.40;95.60
13253;DHT22;6693;54.370;10.132;2022-08-20T08:55:02;27.90;1.00
13253;DHT22;6693;54.370;10.132;2022-08-20T08:57:04;27.80;1.00
13253;DHT22;6693;54.370;10.132;2022-08-20T08:59:07;27.90;1.00
13253;DHT22;6693;54.370;10.132;2022-08-20T09:01:10;28.30;1.00
13253;DHT22;6693;54.370;10.132;2022-08-20T09:03:16;28.50;1.00
13253;DHT22;6693;54.370;10.132;2022-08-20T09:05:17;28.70;1.00
13253;DHT22;6693;54.370;10.132;2022-08-20T09:07:21;28.90;99.90
13253;DHT22;6693;54.370;10.132;2022-08-20T09:09:24;29.00;1.00
13253;DHT22;6693;54.370;10.132;2022-08-20T09:11:26;29.00;1.00
13253;DHT22;6693;54.370;10.132;2022-08-20T09:13:28;28.70;1.00
13253;DHT22;6693;54.370;10.132;2022-08-20T09:15:30;28.60;1.00
13253;DHT22;6693;54.370;10.132;2022-08-20T09:17:31;28.50;99.90
13253;DHT22;6693;54.370;10.132;2022-08-20T09:19:34;28.70;1.00
13253;DHT22;6693;54.370;10.132;2022-08-20T09:21:36;28.80;1.00
13253;DHT22;6693;54.370;10.132;2022-08-20T09:23:37;28.70;99.90
13253;DHT22;6693;54.370;10.132;2022-08-20T09:25:39;28.20;1.00
13253;DHT22;6693;54.370;10.132;2022-08-20T09:27:40;28.50;99.90
13253;DHT22;6693;54.370;10.132;2022-08-20T09:29:42;28.40;99.90
13253;DHT22;6693;54.370;10.132;2022-08-20T09:31:43;28.70;1.00
13253;DHT22;6693;54.370;10.132;2022-08-20T09:33:45;28.80;1.00
13253;DHT22;6693;54.370;10.132;2022-08-20T09:35:48;28.30;1.00
13253;DHT22;6693;54.370;10.132;2022-08-20T09:37:49;28.10;1.00
13253;DHT22;6693;54.370;10.132;2022-08-20T09:39:51;28.10;1.00
13253;DHT22;6693;54.370;10.132;2022-08-20T09:41:53;28.10;1.00
13253;DHT22;6693;54.370;10.132;2022-08-20T09:43:54;28.30;1.00
13253;DHT22;6693;54.370;10.132;2022-08-20T09:45:56;28.60;1.00
13253;DHT22;6693;54.370;10.132;2022-08-20T09:47:57;28.40;1.00
13253;DHT22;6693;54.370;10.132;2022-08-20T09:49:59;28.50;1.00
13253;DHT22;6693;54.370;10.132;2022-08-20T09:52:02;29.30;99.90
13253;DHT22;6693;54.370;10.132;2022-08-20T09:54:05;29.30;99.90
13253;DHT22;6693;54.370;10.132;2022-08-20T09:56:06;29.30;30.00
13253;DHT22;6693;54.370;10.132;2022-08-20T09:58:11;29.40;1.00
13253;DHT22;6693;54.370;10.132;2022-08-20T10:00:16;29.50;1.00
13253;DHT22;6693;54.370;10.132;2022-08-20T10:02:17;29.30;1.00
13253;DHT22;6693;54.370;10.132;2022-08-20T10:04:19;29.10;1.00
13253;DHT22;6693;54.370;10.132;2022-08-20T10:06:20;29.20;1.00
13253;DHT22;6693;54.370;10.132;2022-08-20T10:08:23;29.10;1.00
13253;DHT22;6693;54.370;10.132;2022-08-20T10:10:25;29.30;1.00
13253;DHT22;6693;54.370;10.132;2022-08-20T10:12:26;29.10;1.00
13253;DHT22;6693;54.370;10.132;2022-08-20T10:14:28;29.10;1.00
13253;DHT22;6693;54.370;10.132;2022-08-20T10:16:30;29.40;1.00
13253;DHT22;6693;54.370;10.132;2022-08-20T10:18:32;29.20;1.00
13253;DHT22;6693;54.370;10.132;2022-08-20T10:20:34;28.90;1.00
13253;DHT22;6693;54.370;10.132;2022-08-20T10:22:36;28.50;1.00
13253;DHT22;6693;54.370;10.132;2022-08-20T10:24:39;28.90;1.00
13253;DHT22;6693;54.370;10.132;2022-08-20T10:26:41;28.80;1.00
13253;DHT22;6693;54.370;10.132;2022-08-20T10:28:42;28.70;1.00
13253;DHT22;6693;54.370;10.132;2022-08-20T10:30:44;28.80;1.00
13253;DHT22;6693;54.370;10.132;2022-08-20T10:32:46;28.90;99.90
13253;DHT22;6693;54.370;10.132;2022-08-20T10:34:48;28.50;1.00
13253;DHT22;6693;54.370;10.132;2022-08-20T10:36:49;28.10;1.00
13253;DHT22;6693;54.370;10.132;2022-08-20T10:38:51;28.10;99.90
13253;DHT22;6693;54.370;10.132;2022-08-20T10:40:54;27.70;99.90
13253;DHT22;6693;54.370;10.132;2022-08-20T10:42:55;28.10;99.90
13253;DHT22;6693;54.370;10.132;2022-08-20T10:44:57;28.30;99.90
13253;DHT22;6693;54.370;10.132;2022-08-20T10:47:06;28.50;99.90
13253;DHT22;6693;54.370;10.132;2022-08-20T10:49:12;28.30;99.90
13253;DHT22;6693;54.370;10.132;2022-08-20T10:51:14;28.50;99.90
13253;DHT22;6693;54.370;10.132;2022-08-20T10:53:15;28.70;1.00
13253;DHT22;6693;54.370;10.132;2022-08-20T10:55:17;28.80;1.00
13253;DHT22;6693;54.370;10.132;2022-08-20T10:57:21;28.80;1.00
13253;DHT22;6693;54.370;10.132;2022-08-20T10:59:22;28.80;1.00
13253;DHT22;6693;54.370;10.132;2022-08-20T11:01:24;28.10;1.00
13253;DHT22;6693;54.370;10.132;2022-08-20T11:03:26;28.30;1.00
13253;DHT22;6693;54.370;10.132;2022-08-20T11:05:27;28.30;1.00
13253;DHT22;6693;54.370;10.132;2022-08-20T11:07:30;28.20;1.00
13253;DHT22;6693;54.370;10.132;2022-08-20T11:09:31;28.00;1.00
13253;DHT22;6693;54.370;10.132;2022-08-20T11:11:33;28.20;1.00
13253;DHT22;6693;54.370;10.132;2022-08-20T11:13:36;28.70;1.00
13253;DHT22;6693;54.370;10.132;2022-08-20T11:15:39;28.80;1.00
13253;DHT22;6693;54.370;10.132;2022-08-20T11:17:42;29.00;1.00
13253;DHT22;6693;54.370;10.132;2022-08-20T11:19:43;28.90;1.00
13253;DHT22;6693;54.370;10.132;2022-08-20T11:21:45;29.10;1.00
13253;DHT22;6693;54.370;10.132;2022-08-20T11:23:46;28.90;1.00
13253;DHT22;6693;54.370;10.132;2022-08-20T11:25:48;29.10;1.00
13253;DHT22;6693;54.370;10.132;2022-08-20T11:27:50;28.90;99.90
13253;DHT22;6693;54.370;10.132;2022-08-20T11:29:53;28.90;1.00
13253;DHT22;6693;54.370;10.132;2022-08-20T11:31:55;29.00;1.00
13253;DHT22;6693;54.370;10.132;2022-08-20T11:33:56;29.10;1.00
13253;DHT22;6693;54.370;10.132;2022-08-20T11:35:58;29.80;99.90
13253;DHT22;6693;54.370;10.132;2022-08-20T11:37:59;30.10;99.90
13253;DHT22;6693;54.370;10.132;2022-08-20T11:40:02;30.20;99.90
13253;DHT22;6693;54.370;10.132;2022-08-20T11:42:04;30.30;99.90
13253;DHT22;6693;54.370;10.132;2022-08-20T11:44:05;29.60;99.90
13253;DHT22;6693;54.370;10.132;2022-08-20T11:46:08;28.80;99.90
13253;DHT22;6693;54.370;10.132;2022-08-20T11:48:10;28.90;99.90
13253;DHT22;6693;54.370;10.132;2022-08-20T11:50:13;29.00;99.90
13253;DHT22;6693;54.370;10.132;2022-08-20T11:52:14;29.30;99.90
13253;DHT22;6693;54.370;10.132;2022-08-20T11:54:16;29.10;99.90
13253;DHT22;6693;54.370;10.132;2022-08-20T11:56:18;28.80;99.90
13253;DHT22;6693;54.370;10.132;2022-08-20T11:58:19;28.90;99.90
13253;DHT22;6693;54.370;10.132;2022-08-20T12:00:21;29.20;99.90
13253;DHT22;6693;54.370;10.132;2022-08-20T12:02:25;28.80;99.90
13253;DHT22;6693;54.370;10.132;2022-08-20T12:04:26;29.20;99.90
13253;DHT22;6693;54.370;10.132;2022-08-20T12:06:28;29.20;99.90
13253;DHT22;6693;54.370;10.132;2022-08-20T12:08:30;29.90;99.90
13253;DHT22;6693;54.370;10.132;2022-08-20T12:10:32;30.00;99.90
13253;DHT22;6693;54.370;10.132;2022-08-20T12:12:33;30.10;99.90
13253;DHT22;6693;54.370;10.132;2022-08-20T12:14:35;29.70;99.90
13253;DHT22;6693;54.370;10.132;2022-08-20T12:16:36;29.90;99.90
13253;DHT22;6693;54.370;10.132;2022-08-20T12:18:39;29.60;99.90
13253;DHT22;6693;54.370;10.132;2022-08-20T12:20:41;30.20;99.90
13253;DHT22;6693;54.370;10.132;2022-08-20T12:22:42;30.00;99.90
13253;DHT22;6693;54.370;10.132;2022-08-20T12:24:44;29.90;99.90
13253;DHT22;6693;54.370;10.132;2022-08-20T12:26:45;29.30;99.90
13253;DHT22;6693;54.370;10.132;2022-08-20T12:28:47;29.30;99.90
13253;DHT22;6693;54.370;10.132;2022-08-20T12:30:49;29.30;99.90
13253;DHT22;6693;54.370;10.132;2022-08-20T12:32:50;29.30;99.90
13253;DHT22;6693;54.370;10.132;2022-08-20T12:34:53;29.00;99.90
13253;DHT22;6693;54.370;10.132;2022-08-20T12:36:58;28.80;99.90
13253;DHT22;6693;54.370;10.132;2022-08-20T12:39:00;29.20;99.90
13253;DHT22;6693;54.370;10.132;2022-08-20T12:41:02;29.00;99.90
13253;DHT22;6693;54.370;10.132;2022-08-20T12:43:03;28.70;99.90
13253;DHT22;6693;54.370;10.132;2022-08-20T12:45:05;29.00;99.90
13253;DHT22;6693;54.370;10.132;2022-08-20T12:47:07;28.90;99.90
13253;DHT22;6693;54.370;10.132;2022-08-20T12:49:10;29.40;99.90
13253;DHT22;6693;54.370;10.132;2022-08-20T12:51:13;29.30;99.90
13253;DHT22;6693;54.370;10.132;2022-08-20T12:53:15;29.10;99.90
13253;DHT22;6693;54.370;10.132;2022-08-20T12:55:17;29.40;99.90